美保飛行場の過去48時間の天気

美保飛行場 (Miho)

現在時刻: 1/22 09:48 JST (1/22 00:48 UTC) 以下の時間は現地時間です。

過去48時間のMETAR気象情報
時間 風向 風速(m/s) 視程 気温(℃) 湿度(%) 気圧(hPa) 天気現象
22 09:00 不定 1 10km以上 4 87 1026
22 08:00 南南西 2 10km以上 3 87 1027
22 07:00 南南西 2 10km以上 2 87 1027
22 06:00 南西 2 10km以上 2 87 1026
22 05:00 不定 1 10km以上 2 81 1027
22 04:00 静穏 0 10km以上 2 87 1027
22 03:00 不定 1 10km以上 3 75 1027
22 02:00 南西 2 10km以上 2 93 1028
22 01:00 不定 1 10km以上 2 87 1028
22 00:00 3 10km以上 2 87 1029
21 23:00 南南西 3 10km以上 3 87 1029
21 22:00 不定 1 10km以上 3 93 1029
21 21:00 2 10km以上 4 87 1029
21 20:00 東南東 3 10km以上 8 61 1029
21 19:00 東北東 4 10km以上 8 57 1028
21 18:00 東北東 4 10km以上 8 57 1028
21 17:00 北東 4 10km以上 9 50 1028
21 16:00 北東 5 10km以上 9 50 1027
21 15:00 北東 4 10km以上 10 62 1027 弱いしゅう雨
21 14:00 北北東 3 10km以上 10 54 1027 弱いしゅう雨
21 13:00 南南西 5 10km以上 9 71 1027 弱いしゅう雨
21 12:00 南西 2 10km以上 9 66 1028 弱いしゅう雨
21 11:00 北北西 3 10km以上 8 81 1028 弱いしゅう雨
21 10:00 西北西 4 10km以上 9 53 1027
21 09:00 北西 4 10km以上 8 71 1026 弱いしゅう雨
21 08:00 北西 5 10km以上 8 76 1025 弱いしゅう雨
21 07:00 西北西 4 10km以上 8 57 1024 弱いしゅう雨
21 06:00 西北西 5 10km以上 8 46 1023
21 05:00 西 6 10km以上 8 46 1022
21 04:00 西 6 10km以上 8 46 1022
21 03:00 西 6 10km以上 8 39 1021
21 02:00 西 8 10km以上 8 46 1021
21 01:00 西 7 10km以上 9 43 1020
21 00:00 南西 4 10km以上 7 70 1020
20 23:00 西北西 4 10km以上 9 46 1020
20 22:00 西 5 10km以上 9 46 1020 弱いしゅう雨
20 21:00 西 4 10km以上 9 50 1020 弱いしゅう雨
20 20:00 西 6 10km以上 9 46 1019
20 19:00 西 6 10km以上 8 53 1019 弱いしゅう雨
20 18:00 西 7 10km以上 9 50 1018
20 17:00 西 8 10km以上 9 46 1018
20 16:00 西 10 10km以上 10 40 1017
20 15:00 西 7 10km以上 10 50 1017 弱いしゅう雨
20 14:00 西南西 10 10km以上 10 46 1017
20 13:00 西南西 9 10km以上 10 43 1017
20 12:00 西南西 9 10km以上 10 50 1018
20 11:00 西南西 6 10km以上 10 50 1018
20 10:00 西南西 7 10km以上 10 50 1018
RJOH 220000Z VRB01KT 9999 FEW050 BKN150 04/02 Q1026
RJOH 212300Z 21003KT 9999 FEW050 SCT120 BKN150 03/01 Q1027
RJOH 212200Z 20004KT 180V240 9999 FEW050 BKN150 BKN180 02/M00 Q1027
RJOH 212100Z 23003KT 190V300 9999 FEW050 SCT150 BKN180 02/M00 Q1026
RJOH 212000Z VRB02KT 9999 FEW050 SCT150 BKN180 02/M01 Q1027
RJOH 211900Z 00000KT 9999 FEW030 SCT180 BKN/// 02/00 Q1027
RJOH 211800Z VRB02KT 9999 FEW050 SCT180 BKN/// 03/M01 Q1027
RJOH 211700Z 23003KT 9999 FEW050 BKN/// 02/01 Q1028
RJOH 211600Z VRB01KT 9999 FEW050 SCT/// 02/00 Q1028
RJOH 211500Z 18005KT 9999 FEW/// 02/00 Q1029
RJOH 211400Z 20005KT 9999 FEW050 03/01 Q1029
RJOH 211300Z VRB02KT 9999 FEW050 03/02 Q1029
RJOH 211200Z 17004KT 9999 FEW050 04/02 Q1029
RJOH 211100Z 12005KT 050V170 9999 FEW020 SCT030 BKN050 08/01 Q1029
RJOH 211000Z 07007KT 9999 FEW020 SCT030 BKN050 08/M00 Q1028
RJOH 210900Z 06007KT 9999 FEW020 SCT030 BKN050 08/M00 Q1028
RJOH 210800Z 05007KT 9999 FEW020 SCT030 BKN050 09/M01 Q1028
RJOH 210700Z 04009KT 9999 FEW015 SCT030 BKN050 09/M01 Q1027
RJOH 210600Z 04008KT 9999 -SHRA FEW015 BKN030 BKN050 10/03 Q1027
RJOH 210500Z 02006KT 350V060 9999 -SHRA FEW015 BKN030 BKN050 10/01 Q1027
RJOH 210400Z 21010KT 9999 -SHRA FEW015 BKN030 BKN050 09/04 Q1027
RJOH 210300Z 22003KT 160V280 9999 -SHRA FEW015 SCT020 BKN030 09/03 Q1028
RJOH 210200Z 33005KT 9999 -SHRA FEW010 SCT020 BKN030 08/05 Q1028
RJOH 210100Z 29008KT 9999 FEW040 BKN060 09/00 Q1027
RJOH 210000Z 31008KT 280V340 9999 -SHRA FEW035 SCT040 BKN060 08/03 Q1026
RJOH 202300Z 31010KT 9999 -SHRA FEW035 BKN040 BKN060 08/04 Q1025
RJOH 202200Z 29008KT 9999 -SHRA FEW035 SCT040 BKN070 08/00 Q1024
RJOH 202100Z 30009KT 9999 FEW035 SCT040 BKN050 08/M03 Q1023
RJOH 202000Z 28011KT 9999 FEW040 BKN050 08/M03 Q1022
RJOH 201900Z 28011KT 9999 FEW040 BKN050 08/M03 Q1022
RJOH 201800Z 28011KT 9999 FEW040 BKN050 08/M05 Q1021
RJOH 201700Z 28015G25KT 9999 FEW030 SCT040 BKN050 08/M03 Q1021
RJOH 201600Z 28014KT 9999 FEW030 SCT040 BKN050 09/M03 Q1020
RJOH 201500Z 22008KT 9999 FEW030 SCT040 BKN050 07/02 Q1020
RJOH 201400Z 29008KT 9999 FEW030 SCT040 BKN050 09/M02 Q1020
RJOH 201300Z 27010KT 9999 -SHRA FEW030 SCT040 BKN050 09/M02 Q1020
RJOH 201200Z 26008KT 9999 -SHRA FEW030 SCT040 BKN050 09/M01 Q1020
RJOH 201100Z 26012KT 9999 FEW040 BKN050 09/M02 Q1019
RJOH 201000Z 27012KT 9999 -SHRA FEW030 BKN040 BKN050 08/M01 Q1019
RJOH 200900Z 27014KT 9999 FEW030 SCT040 BKN050 09/M01 Q1018
RJOH 200800Z 26016KT 9999 FEW040 BKN050 09/M02 Q1018
RJOH 200700Z 26019KT 9999 FEW040 BKN050 10/M03 Q1017
RJOH 200600Z 26014KT 9999 -SHRA FEW030 SCT040 BKN050 10/M00 Q1017
RJOH 200500Z 25020KT 9999 FEW040 BKN050 10/M01 Q1017
RJOH 200400Z 25018KT 9999 FEW030 SCT040 BKN050 10/M02 Q1017
RJOH 200300Z 25018KT 9999 FEW030 SCT040 BKN050 10/M00 Q1018
RJOH 200200Z 25012KT 9999 FEW030 SCT040 BKN050 10/M00 Q1018
RJOH 200100Z 25014KT 9999 FEW030 SCT040 BKN050 10/M00 Q1018